sensor_id;sensor_type;location;lat;lon;timestamp;temperature;humidity
16627;DHT22;8427;52.204;7.202;2024-02-23T00:02:07;4.80;92.30
16627;DHT22;8427;52.204;7.202;2024-02-23T00:04:35;4.60;92.50
16627;DHT22;8427;52.204;7.202;2024-02-23T00:07:05;4.90;92.80
16627;DHT22;8427;52.204;7.202;2024-02-23T00:09:34;4.80;92.60
16627;DHT22;8427;52.204;7.202;2024-02-23T00:12:02;4.80;92.70
16627;DHT22;8427;52.204;7.202;2024-02-23T00:14:30;4.80;92.70
16627;DHT22;8427;52.204;7.202;2024-02-23T00:16:59;4.70;92.50
16627;DHT22;8427;52.204;7.202;2024-02-23T00:19:29;4.70;92.50
16627;DHT22;8427;52.204;7.202;2024-02-23T00:21:58;4.80;92.40
16627;DHT22;8427;52.204;7.202;2024-02-23T00:24:28;4.70;91.90
16627;DHT22;8427;52.204;7.202;2024-02-23T00:26:57;4.50;92.20
16627;DHT22;8427;52.204;7.202;2024-02-23T00:29:25;4.60;92.20
16627;DHT22;8427;52.204;7.202;2024-02-23T00:31:54;4.50;91.70
16627;DHT22;8427;52.204;7.202;2024-02-23T00:34:22;4.70;91.20
16627;DHT22;8427;52.204;7.202;2024-02-23T00:36:51;4.40;91.50
16627;DHT22;8427;52.204;7.202;2024-02-23T00:39:19;4.30;91.60
16627;DHT22;8427;52.204;7.202;2024-02-23T00:41:49;4.40;91.90
16627;DHT22;8427;52.204;7.202;2024-02-23T00:44:18;4.40;91.90
16627;DHT22;8427;52.204;7.202;2024-02-23T00:46:46;4.30;91.80
16627;DHT22;8427;52.204;7.202;2024-02-23T00:49:14;4.20;91.50
16627;DHT22;8427;52.204;7.202;2024-02-23T00:51:43;4.40;91.70
16627;DHT22;8427;52.204;7.202;2024-02-23T00:54:12;4.10;91.90
16627;DHT22;8427;52.204;7.202;2024-02-23T00:56:40;4.20;92.00
16627;DHT22;8427;52.204;7.202;2024-02-23T00:59:19;4.20;91.80
16627;DHT22;8427;52.204;7.202;2024-02-23T01:01:48;4.10;91.70
16627;DHT22;8427;52.204;7.202;2024-02-23T01:04:17;4.20;91.80
16627;DHT22;8427;52.204;7.202;2024-02-23T01:06:45;4.10;91.50
16627;DHT22;8427;52.204;7.202;2024-02-23T01:09:14;4.40;91.60
16627;DHT22;8427;52.204;7.202;2024-02-23T01:11:44;4.10;91.20
16627;DHT22;8427;52.204;7.202;2024-02-23T01:14:12;4.40;91.40
16627;DHT22;8427;52.204;7.202;2024-02-23T01:16:42;4.10;91.80
16627;DHT22;8427;52.204;7.202;2024-02-23T01:19:10;4.30;91.90
16627;DHT22;8427;52.204;7.202;2024-02-23T01:21:39;4.40;91.50
16627;DHT22;8427;52.204;7.202;2024-02-23T01:24:08;4.30;91.50
16627;DHT22;8427;52.204;7.202;2024-02-23T01:26:36;4.30;91.30
16627;DHT22;8427;52.204;7.202;2024-02-23T01:29:08;4.20;91.20
16627;DHT22;8427;52.204;7.202;2024-02-23T01:31:37;4.40;90.50
16627;DHT22;8427;52.204;7.202;2024-02-23T01:34:07;4.40;90.70
16627;DHT22;8427;52.204;7.202;2024-02-23T01:36:35;4.20;90.20
16627;DHT22;8427;52.204;7.202;2024-02-23T01:39:04;4.10;90.20
16627;DHT22;8427;52.204;7.202;2024-02-23T01:41:32;4.40;90.00
16627;DHT22;8427;52.204;7.202;2024-02-23T01:44:01;4.20;90.00
16627;DHT22;8427;52.204;7.202;2024-02-23T01:46:29;4.30;90.20
16627;DHT22;8427;52.204;7.202;2024-02-23T01:48:58;4.10;90.30
16627;DHT22;8427;52.204;7.202;2024-02-23T01:51:28;4.20;90.20
16627;DHT22;8427;52.204;7.202;2024-02-23T01:53:56;4.20;90.60
16627;DHT22;8427;52.204;7.202;2024-02-23T01:56:25;4.20;90.70
16627;DHT22;8427;52.204;7.202;2024-02-23T01:58:54;4.30;90.60
16627;DHT22;8427;52.204;7.202;2024-02-23T02:01:23;4.20;90.50
16627;DHT22;8427;52.204;7.202;2024-02-23T02:03:52;4.10;90.40
16627;DHT22;8427;52.204;7.202;2024-02-23T02:06:20;4.30;90.20
16627;DHT22;8427;52.204;7.202;2024-02-23T02:08:50;4.40;90.00
16627;DHT22;8427;52.204;7.202;2024-02-23T02:11:19;4.30;90.00
16627;DHT22;8427;52.204;7.202;2024-02-23T02:13:47;4.50;89.50
16627;DHT22;8427;52.204;7.202;2024-02-23T02:16:16;4.20;89.50
16627;DHT22;8427;52.204;7.202;2024-02-23T02:18:44;4.30;89.90
16627;DHT22;8427;52.204;7.202;2024-02-23T02:21:13;4.50;89.90
16627;DHT22;8427;52.204;7.202;2024-02-23T02:23:41;4.50;89.90
16627;DHT22;8427;52.204;7.202;2024-02-23T02:26:11;4.80;90.20
16627;DHT22;8427;52.204;7.202;2024-02-23T02:28:39;4.50;89.70
16627;DHT22;8427;52.204;7.202;2024-02-23T02:31:07;4.60;89.80
16627;DHT22;8427;52.204;7.202;2024-02-23T02:33:36;4.70;89.30
16627;DHT22;8427;52.204;7.202;2024-02-23T02:36:04;4.70;89.30
16627;DHT22;8427;52.204;7.202;2024-02-23T02:38:33;4.70;88.90
16627;DHT22;8427;52.204;7.202;2024-02-23T02:41:01;4.90;89.10
16627;DHT22;8427;52.204;7.202;2024-02-23T02:43:31;4.80;88.80
16627;DHT22;8427;52.204;7.202;2024-02-23T02:45:59;5.10;88.50
16627;DHT22;8427;52.204;7.202;2024-02-23T02:48:28;4.80;88.30
16627;DHT22;8427;52.204;7.202;2024-02-23T02:50:56;4.90;88.30
16627;DHT22;8427;52.204;7.202;2024-02-23T02:53:25;4.80;88.40
16627;DHT22;8427;52.204;7.202;2024-02-23T02:55:53;4.80;88.30
16627;DHT22;8427;52.204;7.202;2024-02-23T02:58:22;5.00;87.90
16627;DHT22;8427;52.204;7.202;2024-02-23T03:00:52;4.80;87.60
16627;DHT22;8427;52.204;7.202;2024-02-23T03:03:20;5.00;87.40
16627;DHT22;8427;52.204;7.202;2024-02-23T03:05:49;5.00;87.50
16627;DHT22;8427;52.204;7.202;2024-02-23T03:08:18;5.00;87.10
16627;DHT22;8427;52.204;7.202;2024-02-23T03:10:47;5.10;86.60
16627;DHT22;8427;52.204;7.202;2024-02-23T03:13:16;4.80;86.40
16627;DHT22;8427;52.204;7.202;2024-02-23T03:15:44;5.10;86.30
16627;DHT22;8427;52.204;7.202;2024-02-23T03:18:14;4.90;85.90
16627;DHT22;8427;52.204;7.202;2024-02-23T03:20:43;4.90;85.50
16627;DHT22;8427;52.204;7.202;2024-02-23T03:23:11;4.80;85.40
16627;DHT22;8427;52.204;7.202;2024-02-23T03:25:40;4.90;85.70
16627;DHT22;8427;52.204;7.202;2024-02-23T03:28:08;5.10;85.30
16627;DHT22;8427;52.204;7.202;2024-02-23T03:30:37;4.90;85.30
16627;DHT22;8427;52.204;7.202;2024-02-23T03:33:05;4.60;85.40
16627;DHT22;8427;52.204;7.202;2024-02-23T03:35:35;4.90;85.20
16627;DHT22;8427;52.204;7.202;2024-02-23T03:38:04;4.70;84.80
16627;DHT22;8427;52.204;7.202;2024-02-23T03:40:32;5.00;84.80
16627;DHT22;8427;52.204;7.202;2024-02-23T03:43:03;4.90;84.70
16627;DHT22;8427;52.204;7.202;2024-02-23T03:45:31;4.90;85.00
16627;DHT22;8427;52.204;7.202;2024-02-23T03:47:59;4.70;85.20
16627;DHT22;8427;52.204;7.202;2024-02-23T03:50:28;4.60;85.20
16627;DHT22;8427;52.204;7.202;2024-02-23T03:52:58;4.60;85.30
16627;DHT22;8427;52.204;7.202;2024-02-23T03:55:26;4.70;85.40
16627;DHT22;8427;52.204;7.202;2024-02-23T03:57:54;4.80;85.40
16627;DHT22;8427;52.204;7.202;2024-02-23T04:00:22;4.40;85.30
16627;DHT22;8427;52.204;7.202;2024-02-23T04:02:51;4.70;85.20
16627;DHT22;8427;52.204;7.202;2024-02-23T04:05:23;4.70;85.10
16627;DHT22;8427;52.204;7.202;2024-02-23T04:07:51;4.80;85.30
16627;DHT22;8427;52.204;7.202;2024-02-23T04:10:21;4.60;84.60
16627;DHT22;8427;52.204;7.202;2024-02-23T04:12:49;4.70;85.00
16627;DHT22;8427;52.204;7.202;2024-02-23T04:15:18;4.80;85.10
16627;DHT22;8427;52.204;7.202;2024-02-23T04:17:46;4.90;84.60
16627;DHT22;8427;52.204;7.202;2024-02-23T04:20:14;4.80;84.40
16627;DHT22;8427;52.204;7.202;2024-02-23T04:22:44;4.90;84.00
16627;DHT22;8427;52.204;7.202;2024-02-23T04:25:13;5.00;83.80
16627;DHT22;8427;52.204;7.202;2024-02-23T04:27:42;4.90;84.00
16627;DHT22;8427;52.204;7.202;2024-02-23T04:30:11;5.00;84.10
16627;DHT22;8427;52.204;7.202;2024-02-23T04:32:40;4.90;83.30
16627;DHT22;8427;52.204;7.202;2024-02-23T04:35:09;4.90;83.70
16627;DHT22;8427;52.204;7.202;2024-02-23T04:37:37;4.90;83.90
16627;DHT22;8427;52.204;7.202;2024-02-23T04:40:06;4.80;84.20
16627;DHT22;8427;52.204;7.202;2024-02-23T04:42:34;4.70;84.70
16627;DHT22;8427;52.204;7.202;2024-02-23T04:45:05;4.80;84.40
16627;DHT22;8427;52.204;7.202;2024-02-23T04:47:33;4.90;84.70
16627;DHT22;8427;52.204;7.202;2024-02-23T04:50:02;4.90;84.70
16627;DHT22;8427;52.204;7.202;2024-02-23T04:52:30;4.90;84.20
16627;DHT22;8427;52.204;7.202;2024-02-23T04:54:59;5.10;84.40
16627;DHT22;8427;52.204;7.202;2024-02-23T04:57:28;4.90;84.50
16627;DHT22;8427;52.204;7.202;2024-02-23T04:59:56;5.10;84.20
16627;DHT22;8427;52.204;7.202;2024-02-23T05:02:26;5.00;84.10
16627;DHT22;8427;52.204;7.202;2024-02-23T05:04:56;4.90;84.00
16627;DHT22;8427;52.204;7.202;2024-02-23T05:07:24;4.80;84.10
16627;DHT22;8427;52.204;7.202;2024-02-23T05:09:53;5.00;84.30
16627;DHT22;8427;52.204;7.202;2024-02-23T05:12:21;5.00;84.40
16627;DHT22;8427;52.204;7.202;2024-02-23T05:14:49;5.00;84.00
16627;DHT22;8427;52.204;7.202;2024-02-23T05:17:18;4.80;83.80
16627;DHT22;8427;52.204;7.202;2024-02-23T05:19:47;5.10;83.70
16627;DHT22;8427;52.204;7.202;2024-02-23T05:22:16;4.90;83.90
16627;DHT22;8427;52.204;7.202;2024-02-23T05:24:44;4.90;83.70
16627;DHT22;8427;52.204;7.202;2024-02-23T05:27:12;5.00;83.80
16627;DHT22;8427;52.204;7.202;2024-02-23T05:29:40;5.20;83.80
16627;DHT22;8427;52.204;7.202;2024-02-23T05:32:09;4.90;83.60
16627;DHT22;8427;52.204;7.202;2024-02-23T05:34:37;4.80;83.00
16627;DHT22;8427;52.204;7.202;2024-02-23T05:37:07;5.30;83.40
16627;DHT22;8427;52.204;7.202;2024-02-23T05:39:36;5.20;83.20
16627;DHT22;8427;52.204;7.202;2024-02-23T05:42:05;5.00;83.00
16627;DHT22;8427;52.204;7.202;2024-02-23T05:44:33;5.00;83.00
16627;DHT22;8427;52.204;7.202;2024-02-23T05:47:02;5.10;83.00
16627;DHT22;8427;52.204;7.202;2024-02-23T05:49:30;5.10;83.30
16627;DHT22;8427;52.204;7.202;2024-02-23T05:51:58;5.10;83.20
16627;DHT22;8427;52.204;7.202;2024-02-23T05:54:28;5.10;83.10
16627;DHT22;8427;52.204;7.202;2024-02-23T05:56:56;5.10;83.10
16627;DHT22;8427;52.204;7.202;2024-02-23T05:59:25;5.20;83.10
16627;DHT22;8427;52.204;7.202;2024-02-23T06:01:54;5.10;83.20
16627;DHT22;8427;52.204;7.202;2024-02-23T06:04:24;5.00;83.00
16627;DHT22;8427;52.204;7.202;2024-02-23T06:06:52;5.00;82.90
16627;DHT22;8427;52.204;7.202;2024-02-23T06:09:21;5.30;83.00
16627;DHT22;8427;52.204;7.202;2024-02-23T06:11:50;5.20;83.00
16627;DHT22;8427;52.204;7.202;2024-02-23T06:14:19;5.20;83.00
16627;DHT22;8427;52.204;7.202;2024-02-23T06:16:47;5.10;82.70
16627;DHT22;8427;52.204;7.202;2024-02-23T06:19:15;5.30;82.80
16627;DHT22;8427;52.204;7.202;2024-02-23T06:21:47;5.30;82.80
16627;DHT22;8427;52.204;7.202;2024-02-23T06:24:15;5.20;82.60
16627;DHT22;8427;52.204;7.202;2024-02-23T06:26:43;5.00;83.00
16627;DHT22;8427;52.204;7.202;2024-02-23T06:29:14;5.20;83.20
16627;DHT22;8427;52.204;7.202;2024-02-23T06:31:42;5.10;82.90
16627;DHT22;8427;52.204;7.202;2024-02-23T06:34:16;5.10;82.90
16627;DHT22;8427;52.204;7.202;2024-02-23T06:36:44;5.30;82.70
16627;DHT22;8427;52.204;7.202;2024-02-23T06:39:12;5.20;82.50
16627;DHT22;8427;52.204;7.202;2024-02-23T06:41:41;5.30;82.40
16627;DHT22;8427;52.204;7.202;2024-02-23T06:44:09;5.30;82.40
16627;DHT22;8427;52.204;7.202;2024-02-23T06:46:39;5.20;82.10
16627;DHT22;8427;52.204;7.202;2024-02-23T06:49:07;5.20;82.40
16627;DHT22;8427;52.204;7.202;2024-02-23T06:51:35;5.10;82.40
16627;DHT22;8427;52.204;7.202;2024-02-23T06:54:05;5.10;82.10
16627;DHT22;8427;52.204;7.202;2024-02-23T06:56:35;5.20;82.40
16627;DHT22;8427;52.204;7.202;2024-02-23T06:59:03;5.30;82.10
16627;DHT22;8427;52.204;7.202;2024-02-23T07:01:32;5.30;81.80
16627;DHT22;8427;52.204;7.202;2024-02-23T07:04:07;5.30;81.80
16627;DHT22;8427;52.204;7.202;2024-02-23T07:06:35;5.50;81.50
16627;DHT22;8427;52.204;7.202;2024-02-23T07:09:04;5.40;81.50
16627;DHT22;8427;52.204;7.202;2024-02-23T07:11:33;5.60;81.80
16627;DHT22;8427;52.204;7.202;2024-02-23T07:14:01;5.60;81.80
16627;DHT22;8427;52.204;7.202;2024-02-23T07:16:30;5.50;81.40
16627;DHT22;8427;52.204;7.202;2024-02-23T07:18:59;5.60;81.30
16627;DHT22;8427;52.204;7.202;2024-02-23T07:21:28;5.40;81.30
16627;DHT22;8427;52.204;7.202;2024-02-23T07:23:57;5.40;80.90
16627;DHT22;8427;52.204;7.202;2024-02-23T07:26:25;5.60;81.10
16627;DHT22;8427;52.204;7.202;2024-02-23T07:28:55;5.70;80.90
16627;DHT22;8427;52.204;7.202;2024-02-23T07:31:23;5.70;81.10
16627;DHT22;8427;52.204;7.202;2024-02-23T07:33:52;5.80;81.00
16627;DHT22;8427;52.204;7.202;2024-02-23T07:36:20;5.70;80.50
16627;DHT22;8427;52.204;7.202;2024-02-23T07:38:50;5.80;80.30
16627;DHT22;8427;52.204;7.202;2024-02-23T07:41:18;5.80;80.30
16627;DHT22;8427;52.204;7.202;2024-02-23T07:43:47;5.70;80.10
16627;DHT22;8427;52.204;7.202;2024-02-23T07:46:16;5.80;80.20
16627;DHT22;8427;52.204;7.202;2024-02-23T07:48:44;5.90;79.30
16627;DHT22;8427;52.204;7.202;2024-02-23T07:51:14;6.00;79.10
16627;DHT22;8427;52.204;7.202;2024-02-23T07:53:42;5.80;79.30
16627;DHT22;8427;52.204;7.202;2024-02-23T07:56:12;5.90;79.50
16627;DHT22;8427;52.204;7.202;2024-02-23T07:58:40;6.00;78.90
16627;DHT22;8427;52.204;7.202;2024-02-23T08:01:09;5.80;78.80
16627;DHT22;8427;52.204;7.202;2024-02-23T08:03:37;6.00;79.10
16627;DHT22;8427;52.204;7.202;2024-02-23T08:06:09;5.90;79.00
16627;DHT22;8427;52.204;7.202;2024-02-23T08:08:40;5.80;79.00
16627;DHT22;8427;52.204;7.202;2024-02-23T08:11:08;5.80;79.10
16627;DHT22;8427;52.204;7.202;2024-02-23T08:13:38;5.70;79.00
16627;DHT22;8427;52.204;7.202;2024-02-23T08:16:07;6.00;78.90
16627;DHT22;8427;52.204;7.202;2024-02-23T08:18:35;5.90;79.00
16627;DHT22;8427;52.204;7.202;2024-02-23T08:21:04;5.70;78.30
16627;DHT22;8427;52.204;7.202;2024-02-23T08:23:34;6.10;78.00
16627;DHT22;8427;52.204;7.202;2024-02-23T08:26:03;5.90;78.00
16627;DHT22;8427;52.204;7.202;2024-02-23T08:28:31;6.00;78.10
16627;DHT22;8427;52.204;7.202;2024-02-23T08:31:01;6.20;78.20
16627;DHT22;8427;52.204;7.202;2024-02-23T08:33:30;6.20;77.50
16627;DHT22;8427;52.204;7.202;2024-02-23T08:36:00;6.20;77.40
16627;DHT22;8427;52.204;7.202;2024-02-23T08:38:28;6.40;77.40
16627;DHT22;8427;52.204;7.202;2024-02-23T08:40:57;6.60;76.70
16627;DHT22;8427;52.204;7.202;2024-02-23T08:43:26;6.20;76.50
16627;DHT22;8427;52.204;7.202;2024-02-23T08:45:54;6.40;76.50
16627;DHT22;8427;52.204;7.202;2024-02-23T08:48:29;6.40;76.90
16627;DHT22;8427;52.204;7.202;2024-02-23T08:50:57;6.70;75.90
16627;DHT22;8427;52.204;7.202;2024-02-23T08:53:26;6.60;75.90
16627;DHT22;8427;52.204;7.202;2024-02-23T08:55:54;6.60;76.60
16627;DHT22;8427;52.204;7.202;2024-02-23T08:58:23;6.70;76.10
16627;DHT22;8427;52.204;7.202;2024-02-23T09:00:51;6.80;76.30
16627;DHT22;8427;52.204;7.202;2024-02-23T09:03:19;6.90;76.00
16627;DHT22;8427;52.204;7.202;2024-02-23T09:05:49;6.90;74.40
16627;DHT22;8427;52.204;7.202;2024-02-23T09:08:18;7.00;75.10
16627;DHT22;8427;52.204;7.202;2024-02-23T09:10:46;7.00;75.30
16627;DHT22;8427;52.204;7.202;2024-02-23T09:13:14;7.00;74.90
16627;DHT22;8427;52.204;7.202;2024-02-23T09:15:43;7.30;74.70
16627;DHT22;8427;52.204;7.202;2024-02-23T09:18:12;7.10;74.10
16627;DHT22;8427;52.204;7.202;2024-02-23T09:20:40;7.40;73.90
16627;DHT22;8427;52.204;7.202;2024-02-23T09:23:10;7.40;74.00
16627;DHT22;8427;52.204;7.202;2024-02-23T09:25:38;7.50;73.80
16627;DHT22;8427;52.204;7.202;2024-02-23T09:28:10;7.40;73.10
16627;DHT22;8427;52.204;7.202;2024-02-23T09:30:39;7.50;73.60
16627;DHT22;8427;52.204;7.202;2024-02-23T09:33:08;7.40;73.20
16627;DHT22;8427;52.204;7.202;2024-02-23T09:35:37;7.40;73.00
16627;DHT22;8427;52.204;7.202;2024-02-23T09:38:05;7.50;72.90
16627;DHT22;8427;52.204;7.202;2024-02-23T09:40:35;7.40;73.10
16627;DHT22;8427;52.204;7.202;2024-02-23T09:43:04;7.30;73.80
16627;DHT22;8427;52.204;7.202;2024-02-23T09:45:38;7.40;73.00
16627;DHT22;8427;52.204;7.202;2024-02-23T09:48:07;7.30;73.30
16627;DHT22;8427;52.204;7.202;2024-02-23T09:50:36;7.40;72.70
16627;DHT22;8427;52.204;7.202;2024-02-23T09:53:05;7.30;72.90
16627;DHT22;8427;52.204;7.202;2024-02-23T09:55:36;7.50;74.20
16627;DHT22;8427;52.204;7.202;2024-02-23T09:58:05;7.30;73.50
16627;DHT22;8427;52.204;7.202;2024-02-23T10:00:34;7.40;73.10
16627;DHT22;8427;52.204;7.202;2024-02-23T10:03:05;7.40;73.10
16627;DHT22;8427;52.204;7.202;2024-02-23T10:05:34;7.40;73.60
16627;DHT22;8427;52.204;7.202;2024-02-23T10:08:08;7.50;73.00
16627;DHT22;8427;52.204;7.202;2024-02-23T10:10:38;7.50;73.10
16627;DHT22;8427;52.204;7.202;2024-02-23T10:13:06;7.60;73.10
16627;DHT22;8427;52.204;7.202;2024-02-23T10:15:35;7.70;73.60
16627;DHT22;8427;52.204;7.202;2024-02-23T10:18:04;7.90;72.50
16627;DHT22;8427;52.204;7.202;2024-02-23T10:20:32;7.80;71.90
16627;DHT22;8427;52.204;7.202;2024-02-23T10:23:01;7.80;71.60
16627;DHT22;8427;52.204;7.202;2024-02-23T10:25:33;7.80;70.80
16627;DHT22;8427;52.204;7.202;2024-02-23T10:28:17;7.70;72.10
16627;DHT22;8427;52.204;7.202;2024-02-23T10:30:49;7.60;71.20
16627;DHT22;8427;52.204;7.202;2024-02-23T10:33:18;7.50;71.90
16627;DHT22;8427;52.204;7.202;2024-02-23T10:35:47;7.70;71.70
16627;DHT22;8427;52.204;7.202;2024-02-23T10:38:17;7.80;71.70
16627;DHT22;8427;52.204;7.202;2024-02-23T10:40:46;7.80;70.90
16627;DHT22;8427;52.204;7.202;2024-02-23T10:43:17;7.90;71.50
16627;DHT22;8427;52.204;7.202;2024-02-23T10:45:48;7.80;71.50
16627;DHT22;8427;52.204;7.202;2024-02-23T10:48:17;7.70;70.80
16627;DHT22;8427;52.204;7.202;2024-02-23T10:50:46;7.80;70.70
16627;DHT22;8427;52.204;7.202;2024-02-23T10:53:14;7.80;71.30
16627;DHT22;8427;52.204;7.202;2024-02-23T10:55:44;7.50;71.30
16627;DHT22;8427;52.204;7.202;2024-02-23T10:58:13;7.60;70.70
16627;DHT22;8427;52.204;7.202;2024-02-23T11:00:43;7.70;71.70
16627;DHT22;8427;52.204;7.202;2024-02-23T11:03:14;7.60;70.30
16627;DHT22;8427;52.204;7.202;2024-02-23T11:05:44;7.50;70.80
16627;DHT22;8427;52.204;7.202;2024-02-23T11:08:17;7.70;71.80
16627;DHT22;8427;52.204;7.202;2024-02-23T11:10:48;7.70;71.50
16627;DHT22;8427;52.204;7.202;2024-02-23T11:13:17;7.80;70.60
16627;DHT22;8427;52.204;7.202;2024-02-23T11:15:45;7.80;71.30
16627;DHT22;8427;52.204;7.202;2024-02-23T11:18:22;7.80;71.00
16627;DHT22;8427;52.204;7.202;2024-02-23T11:20:54;8.00;70.50
16627;DHT22;8427;52.204;7.202;2024-02-23T11:23:23;7.80;71.00
16627;DHT22;8427;52.204;7.202;2024-02-23T11:25:58;7.90;70.00
16627;DHT22;8427;52.204;7.202;2024-02-23T11:28:28;7.80;71.10
16627;DHT22;8427;52.204;7.202;2024-02-23T11:30:56;7.90;70.10
16627;DHT22;8427;52.204;7.202;2024-02-23T11:33:31;7.60;72.20
16627;DHT22;8427;52.204;7.202;2024-02-23T11:36:06;7.40;74.00
16627;DHT22;8427;52.204;7.202;2024-02-23T11:38:34;7.30;76.00
16627;DHT22;8427;52.204;7.202;2024-02-23T11:41:03;7.20;77.30
16627;DHT22;8427;52.204;7.202;2024-02-23T11:43:33;7.20;77.40
16627;DHT22;8427;52.204;7.202;2024-02-23T11:46:03;7.20;78.00
16627;DHT22;8427;52.204;7.202;2024-02-23T11:48:33;7.20;77.90
16627;DHT22;8427;52.204;7.202;2024-02-23T11:51:01;7.10;77.60
16627;DHT22;8427;52.204;7.202;2024-02-23T11:53:31;7.20;78.10
16627;DHT22;8427;52.204;7.202;2024-02-23T11:55:59;7.50;78.10
16627;DHT22;8427;52.204;7.202;2024-02-23T11:58:28;7.40;78.10
16627;DHT22;8427;52.204;7.202;2024-02-23T12:00:57;7.40;78.20
16627;DHT22;8427;52.204;7.202;2024-02-23T12:03:27;7.20;80.20
16627;DHT22;8427;52.204;7.202;2024-02-23T12:05:57;7.20;81.60
16627;DHT22;8427;52.204;7.202;2024-02-23T12:08:26;6.80;81.20
16627;DHT22;8427;52.204;7.202;2024-02-23T12:10:55;6.90;82.40
16627;DHT22;8427;52.204;7.202;2024-02-23T12:13:23;6.90;83.50
16627;DHT22;8427;52.204;7.202;2024-02-23T12:15:53;6.70;82.60
16627;DHT22;8427;52.204;7.202;2024-02-23T12:18:22;6.70;83.70
16627;DHT22;8427;52.204;7.202;2024-02-23T12:20:53;6.90;84.60
16627;DHT22;8427;52.204;7.202;2024-02-23T12:23:23;6.80;84.20
16627;DHT22;8427;52.204;7.202;2024-02-23T12:25:52;6.90;83.40
16627;DHT22;8427;52.204;7.202;2024-02-23T12:28:20;6.90;84.10
16627;DHT22;8427;52.204;7.202;2024-02-23T12:30:58;7.30;84.00
16627;DHT22;8427;52.204;7.202;2024-02-23T12:33:27;7.40;84.20
16627;DHT22;8427;52.204;7.202;2024-02-23T12:35:55;7.40;81.60
16627;DHT22;8427;52.204;7.202;2024-02-23T12:38:25;7.50;81.60
16627;DHT22;8427;52.204;7.202;2024-02-23T12:40:55;7.30;82.00
16627;DHT22;8427;52.204;7.202;2024-02-23T12:43:24;7.60;81.70
16627;DHT22;8427;52.204;7.202;2024-02-23T12:45:52;7.70;81.20
16627;DHT22;8427;52.204;7.202;2024-02-23T12:48:21;7.70;82.20
16627;DHT22;8427;52.204;7.202;2024-02-23T12:50:49;7.60;82.00
16627;DHT22;8427;52.204;7.202;2024-02-23T12:53:31;7.80;81.60
16627;DHT22;8427;52.204;7.202;2024-02-23T12:56:00;7.80;81.70
16627;DHT22;8427;52.204;7.202;2024-02-23T12:58:30;7.80;81.10
16627;DHT22;8427;52.204;7.202;2024-02-23T13:00:58;7.80;81.00
16627;DHT22;8427;52.204;7.202;2024-02-23T13:03:27;7.80;81.00
16627;DHT22;8427;52.204;7.202;2024-02-23T13:05:56;7.80;80.30
16627;DHT22;8427;52.204;7.202;2024-02-23T13:08:25;7.80;80.00
16627;DHT22;8427;52.204;7.202;2024-02-23T13:10:55;7.70;79.60
16627;DHT22;8427;52.204;7.202;2024-02-23T13:13:23;7.80;80.30
16627;DHT22;8427;52.204;7.202;2024-02-23T13:15:52;8.00;79.70
16627;DHT22;8427;52.204;7.202;2024-02-23T13:18:21;8.00;79.60
16627;DHT22;8427;52.204;7.202;2024-02-23T13:20:50;8.10;79.70
16627;DHT22;8427;52.204;7.202;2024-02-23T13:23:18;8.10;79.40
16627;DHT22;8427;52.204;7.202;2024-02-23T13:25:47;8.10;79.60
16627;DHT22;8427;52.204;7.202;2024-02-23T13:28:17;8.30;80.30
16627;DHT22;8427;52.204;7.202;2024-02-23T13:30:45;8.00;79.70
16627;DHT22;8427;52.204;7.202;2024-02-23T13:33:14;8.00;80.40
16627;DHT22;8427;52.204;7.202;2024-02-23T13:35:43;7.80;80.30
16627;DHT22;8427;52.204;7.202;2024-02-23T13:38:12;7.60;81.60
16627;DHT22;8427;52.204;7.202;2024-02-23T13:40:40;7.70;82.00
16627;DHT22;8427;52.204;7.202;2024-02-23T13:43:09;7.60;82.50
16627;DHT22;8427;52.204;7.202;2024-02-23T13:45:48;7.60;82.60
16627;DHT22;8427;52.204;7.202;2024-02-23T13:48:17;7.60;82.60
16627;DHT22;8427;52.204;7.202;2024-02-23T13:50:46;7.40;82.70
16627;DHT22;8427;52.204;7.202;2024-02-23T13:53:14;7.50;82.10
16627;DHT22;8427;52.204;7.202;2024-02-23T13:55:43;7.50;82.40
16627;DHT22;8427;52.204;7.202;2024-02-23T13:58:13;7.50;82.40
16627;DHT22;8427;52.204;7.202;2024-02-23T14:00:43;7.60;82.40
16627;DHT22;8427;52.204;7.202;2024-02-23T14:03:11;7.80;81.30
16627;DHT22;8427;52.204;7.202;2024-02-23T14:05:44;7.60;81.40
16627;DHT22;8427;52.204;7.202;2024-02-23T14:08:13;7.70;80.70
16627;DHT22;8427;52.204;7.202;2024-02-23T14:10:42;7.50;81.60
16627;DHT22;8427;52.204;7.202;2024-02-23T14:13:11;7.70;81.40
16627;DHT22;8427;52.204;7.202;2024-02-23T14:15:39;7.80;81.80
16627;DHT22;8427;52.204;7.202;2024-02-23T14:18:09;7.50;81.90
16627;DHT22;8427;52.204;7.202;2024-02-23T14:20:37;7.70;81.80
16627;DHT22;8427;52.204;7.202;2024-02-23T14:23:07;7.80;81.80
16627;DHT22;8427;52.204;7.202;2024-02-23T14:25:35;7.50;81.70
16627;DHT22;8427;52.204;7.202;2024-02-23T14:28:03;7.80;82.00
16627;DHT22;8427;52.204;7.202;2024-02-23T14:30:32;7.90;81.80
16627;DHT22;8427;52.204;7.202;2024-02-23T14:33:00;8.00;81.50
16627;DHT22;8427;52.204;7.202;2024-02-23T14:35:30;8.00;81.40
16627;DHT22;8427;52.204;7.202;2024-02-23T14:37:58;8.00;81.00
16627;DHT22;8427;52.204;7.202;2024-02-23T14:40:27;8.10;81.30
16627;DHT22;8427;52.204;7.202;2024-02-23T14:42:55;7.90;81.10
16627;DHT22;8427;52.204;7.202;2024-02-23T14:45:24;8.00;81.80
16627;DHT22;8427;52.204;7.202;2024-02-23T14:47:54;8.00;82.60
16627;DHT22;8427;52.204;7.202;2024-02-23T14:50:22;8.20;82.40
16627;DHT22;8427;52.204;7.202;2024-02-23T14:52:52;8.10;82.90
16627;DHT22;8427;52.204;7.202;2024-02-23T14:55:21;8.10;82.50
16627;DHT22;8427;52.204;7.202;2024-02-23T14:57:50;7.90;82.80
16627;DHT22;8427;52.204;7.202;2024-02-23T15:00:18;7.80;82.90
16627;DHT22;8427;52.204;7.202;2024-02-23T15:02:46;7.80;82.80
16627;DHT22;8427;52.204;7.202;2024-02-23T15:05:15;7.80;82.60
16627;DHT22;8427;52.204;7.202;2024-02-23T15:07:45;7.80;81.70
16627;DHT22;8427;52.204;7.202;2024-02-23T15:10:15;7.70;82.10
16627;DHT22;8427;52.204;7.202;2024-02-23T15:12:43;7.80;81.80
16627;DHT22;8427;52.204;7.202;2024-02-23T15:15:11;7.80;81.40
16627;DHT22;8427;52.204;7.202;2024-02-23T15:17:41;7.80;81.40
16627;DHT22;8427;52.204;7.202;2024-02-23T15:20:10;8.00;80.80
16627;DHT22;8427;52.204;7.202;2024-02-23T15:22:39;7.80;80.50
16627;DHT22;8427;52.204;7.202;2024-02-23T15:25:09;7.80;81.00
16627;DHT22;8427;52.204;7.202;2024-02-23T15:27:42;7.70;80.80
16627;DHT22;8427;52.204;7.202;2024-02-23T15:30:10;7.60;81.10
16627;DHT22;8427;52.204;7.202;2024-02-23T15:32:39;7.70;81.50
16627;DHT22;8427;52.204;7.202;2024-02-23T15:35:08;7.90;81.80
16627;DHT22;8427;52.204;7.202;2024-02-23T15:37:36;7.90;81.40
16627;DHT22;8427;52.204;7.202;2024-02-23T15:40:05;7.90;81.30
16627;DHT22;8427;52.204;7.202;2024-02-23T15:42:34;7.90;81.70
16627;DHT22;8427;52.204;7.202;2024-02-23T15:45:06;8.10;81.00
16627;DHT22;8427;52.204;7.202;2024-02-23T15:47:35;8.20;80.90
16627;DHT22;8427;52.204;7.202;2024-02-23T15:50:04;8.20;80.50
16627;DHT22;8427;52.204;7.202;2024-02-23T15:52:52;8.00;79.80
16627;DHT22;8427;52.204;7.202;2024-02-23T15:55:21;7.90;79.50
16627;DHT22;8427;52.204;7.202;2024-02-23T15:57:49;7.90;80.10
16627;DHT22;8427;52.204;7.202;2024-02-23T16:00:19;7.70;80.20
16627;DHT22;8427;52.204;7.202;2024-02-23T16:02:48;7.70;80.00
16627;DHT22;8427;52.204;7.202;2024-02-23T16:05:16;7.70;80.30
16627;DHT22;8427;52.204;7.202;2024-02-23T16:07:45;7.60;79.90
16627;DHT22;8427;52.204;7.202;2024-02-23T16:10:15;7.60;79.90
16627;DHT22;8427;52.204;7.202;2024-02-23T16:12:46;7.70;79.70
16627;DHT22;8427;52.204;7.202;2024-02-23T16:15:18;7.70;79.90